Aviation Digital Data Service (ADDS)

Output produced by METARs form (0751 UTC 10 December 2022)
found at http://www.aviationweather.gov/metar/data/
 
METAR text: KATL 100736Z 08009KT 1/2SM R09R/P6000FT BR OVC004 13/12 A3016 RMK AO2 SFC VIS 3 CIG 002V006 T01280122
Conditions at: KATL (ATLANTA , GA, US) observed 0736 UTC 10 December 2022
Temperature: 12.8°C (55°F)
Dewpoint: 12.2°C (54°F) [RH = 96%]
Pressure (altimeter): 30.16 inches Hg (1021.4 mb)
Winds: from the E (80 degrees) at 10 MPH (9 knots; 4.6 m/s)
Visibility: 0.50 miles (0.80 km)
Ceiling: 400 feet AGL
Clouds: overcast cloud deck at 400 feet AGL
Weather: BR  (mist)

METAR text: KATL 100721Z 08007KT 1/2SM R09R/P6000FT BR FEW002 BKN005 OVC009 13/12 A3016 RMK AO2 SFC VIS 5 CIG 004V007 T01330122
Conditions at: KATL (ATLANTA , GA, US) observed 0721 UTC 10 December 2022
Temperature: 13.3°C (56°F)
Dewpoint: 12.2°C (54°F) [RH = 93%]
Pressure (altimeter): 30.16 inches Hg (1021.4 mb)
Winds: from the E (80 degrees) at 8 MPH (7 knots; 3.6 m/s)
Visibility: 0.50 miles (0.80 km)
Ceiling: 500 feet AGL
Clouds: few clouds at 200 feet AGL
broken clouds at 500 feet AGL
overcast cloud deck at 900 feet AGL
Weather: BR  (mist)

METAR text: KATL 100652Z 07008KT 1/2SM R09R/6000VP6000FT BR OVC003 13/12 A3015 RMK AO2 SFC VIS 1 SLP208 T01280122
Conditions at: KATL (ATLANTA , GA, US) observed 0652 UTC 10 December 2022
Temperature: 12.8°C (55°F)
Dewpoint: 12.2°C (54°F) [RH = 96%]
Pressure (altimeter): 30.15 inches Hg (1021.1 mb)
[Sea-level pressure: 1020.8 mb]
Winds: from the ENE (70 degrees) at 9 MPH (8 knots; 4.1 m/s)
Visibility: 0.50 miles (0.80 km)
Ceiling: 300 feet AGL
Clouds: overcast cloud deck at 300 feet AGL
Weather: BR  (mist)

Forecast for: KATL (ATLANTA , GA, US)
Text: KATL 100737Z 1008/1112 09007KT 4SM BR OVC004
Forecast period: 0800 to 1200 UTC 10 December 2022
Forecast type: FROM: standard forecast or significant change
Winds: from the E (90 degrees) at 8 MPH (7 knots; 3.6 m/s)
Visibility: 4 miles (6 km)
Ceiling: 400 feet AGL
Clouds: overcast cloud deck at 400 feet AGL
Weather: BR  (mist)
Text: FM101200 08005KT 5SM BR OVC004
Forecast period: 1200 to 1600 UTC 10 December 2022
Forecast type: FROM: standard forecast or significant change
Winds: from the E (80 degrees) at 6 MPH (5 knots; 2.6 m/s)
Visibility: 5 miles (8 km)
Ceiling: 400 feet AGL
Clouds: overcast cloud deck at 400 feet AGL
Weather: BR  (mist)
Text: FM101600 09005KT P6SM OVC006
Forecast period: 1600 to 2100 UTC 10 December 2022
Forecast type: FROM: standard forecast or significant change
Winds: from the E (90 degrees) at 6 MPH (5 knots; 2.6 m/s)
Visibility: 6 or more miles (10+ km)
Ceiling: 600 feet AGL
Clouds: overcast cloud deck at 600 feet AGL
Weather: no significant weather forecast for this period
Text: FM102100 09005KT P6SM OVC012
Forecast period: 2100 UTC 10 December 2022 to 0200 UTC 11 December 2022
Forecast type: FROM: standard forecast or significant change
Winds: from the E (90 degrees) at 6 MPH (5 knots; 2.6 m/s)
Visibility: 6 or more miles (10+ km)
Ceiling: 1200 feet AGL
Clouds: overcast cloud deck at 1200 feet AGL
Weather: no significant weather forecast for this period
Text: FM110200 10005KT 6SM BR OVC009
Forecast period: 0200 to 0900 UTC 11 December 2022
Forecast type: FROM: standard forecast or significant change
Winds: from the E (100 degrees) at 6 MPH (5 knots; 2.6 m/s)
Visibility: 6 miles (10 km)
Ceiling: 900 feet AGL
Clouds: overcast cloud deck at 900 feet AGL
Weather: BR  (mist)
Text: PROB30 1102/1106 2SM -RA BR OVC003
Forecast period: 0200 to 0600 UTC 11 December 2022
Forecast type: PROBABLE: 30 percent likelihood of the following during this time
Visibility: 2.00 miles (3.22 km)
Ceiling: 300 feet AGL
Clouds: overcast cloud deck at 300 feet AGL
Weather: -RA BR  (light rain, mist)
Text: FM110900 10006KT 3SM -SHRA BR OVC004
Forecast period: 0900 to 1200 UTC 11 December 2022
Forecast type: FROM: standard forecast or significant change
Winds: from the E (100 degrees) at 7 MPH (6 knots; 3.1 m/s)
Visibility: 3 miles (5 km)
Ceiling: 400 feet AGL
Clouds: overcast cloud deck at 400 feet AGL
Weather: -SHRA BR  (light rain showers, mist)